createdAt,value
2022-10-14T00:01:42.989Z,13.50
2022-10-14T00:04:09.491Z,13.52
2022-10-14T00:06:35.936Z,13.65
2022-10-14T00:09:06.956Z,13.65
2022-10-14T00:11:35.077Z,13.55
2022-10-14T00:14:12.275Z,13.45
2022-10-14T00:16:41.139Z,13.39
2022-10-14T00:19:08.090Z,13.42
2022-10-14T00:21:35.442Z,13.50
2022-10-14T00:24:01.890Z,13.55
2022-10-14T00:26:31.608Z,13.53
2022-10-14T00:28:59.362Z,13.43
2022-10-14T00:31:26.878Z,13.27
2022-10-14T00:33:53.322Z,13.18
2022-10-14T00:36:21.444Z,13.09
2022-10-14T00:38:48.728Z,12.99
2022-10-14T00:41:22.145Z,12.93
2022-10-14T00:43:59.490Z,12.90
2022-10-14T00:46:28.099Z,13.03
2022-10-14T00:48:55.801Z,13.04
2022-10-14T00:51:22.432Z,13.02
2022-10-14T00:53:48.927Z,13.14
2022-10-14T00:56:21.280Z,13.16
2022-10-14T00:58:47.904Z,13.12
2022-10-14T01:01:14.295Z,12.94
2022-10-14T01:03:41.228Z,12.89
2022-10-14T01:06:19.142Z,12.89
2022-10-14T01:09:14.823Z,12.74
2022-10-14T01:12:30.169Z,12.66
2022-10-14T01:15:22.798Z,12.77
2022-10-14T01:18:54.074Z,12.86
2022-10-14T01:21:36.512Z,12.93
2022-10-14T01:24:43.213Z,12.96
2022-10-14T01:27:18.321Z,12.84
2022-10-14T01:30:06.940Z,12.63
2022-10-14T01:32:38.279Z,12.68
2022-10-14T01:35:46.685Z,12.72
2022-10-14T01:38:21.968Z,12.65
2022-10-14T01:41:17.743Z,12.56
2022-10-14T01:43:48.481Z,12.48
2022-10-14T01:46:17.516Z,12.46
2022-10-14T01:48:50.833Z,12.41
2022-10-14T01:51:24.928Z,12.52
2022-10-14T01:53:57.933Z,12.40
2022-10-14T01:56:27.894Z,12.25
2022-10-14T01:58:54.970Z,12.21
2022-10-14T02:01:21.550Z,12.33
2022-10-14T02:03:48.441Z,12.39
2022-10-14T02:06:30.025Z,12.40
2022-10-14T02:09:14.915Z,12.24
2022-10-14T02:11:59.037Z,12.13
2022-10-14T02:14:39.095Z,12.17
2022-10-14T02:17:21.677Z,12.32
2022-10-14T02:19:57.797Z,12.47
2022-10-14T02:22:36.416Z,12.44
2022-10-14T02:25:18.635Z,12.37
2022-10-14T02:27:48.156Z,12.41
2022-10-14T02:30:16.565Z,12.40
2022-10-14T02:32:44.829Z,12.33
2022-10-14T02:35:15.485Z,12.31
2022-10-14T02:37:42.126Z,12.38
2022-10-14T02:40:13.676Z,12.32
2022-10-14T02:42:40.089Z,12.24
2022-10-14T02:45:08.758Z,12.00
2022-10-14T02:47:35.174Z,12.04
2022-10-14T02:50:01.684Z,12.10
2022-10-14T02:52:28.155Z,12.17
2022-10-14T02:54:54.559Z,12.04
2022-10-14T02:57:20.997Z,11.90
2022-10-14T02:59:47.785Z,11.86
2022-10-14T03:02:14.262Z,11.95
2022-10-14T03:04:40.734Z,12.17
2022-10-14T03:07:07.181Z,12.19
2022-10-14T03:09:33.625Z,12.15
2022-10-14T03:12:00.124Z,12.10
2022-10-14T03:14:26.623Z,12.18
2022-10-14T03:16:53.051Z,12.26
2022-10-14T03:19:19.495Z,12.20
2022-10-14T03:21:46.037Z,12.10
2022-10-14T03:24:12.621Z,12.11
2022-10-14T03:26:39.038Z,12.19
2022-10-14T03:29:05.487Z,12.26
2022-10-14T03:31:31.887Z,12.24
2022-10-14T03:33:58.325Z,12.09
2022-10-14T03:36:24.870Z,11.97
2022-10-14T03:38:51.273Z,11.82
2022-10-14T03:41:17.759Z,11.71
2022-10-14T03:43:44.164Z,11.74
2022-10-14T03:46:10.593Z,11.73
2022-10-14T03:48:37.401Z,11.69
2022-10-14T03:51:03.905Z,11.78
2022-10-14T03:53:30.322Z,11.89
2022-10-14T03:55:56.800Z,11.87
2022-10-14T03:58:23.209Z,11.87
2022-10-14T04:00:49.684Z,11.93
2022-10-14T04:03:16.140Z,11.98
2022-10-14T04:05:42.628Z,11.97
2022-10-14T04:08:09.160Z,11.87
2022-10-14T04:10:35.679Z,11.97
2022-10-14T04:13:02.143Z,12.02
2022-10-14T04:15:28.638Z,12.01
2022-10-14T04:17:56.090Z,11.98
2022-10-14T04:20:22.560Z,11.84
2022-10-14T04:22:48.973Z,11.75
2022-10-14T04:25:15.466Z,11.74
2022-10-14T04:27:41.863Z,11.70
2022-10-14T04:30:09.889Z,11.67
2022-10-14T04:32:36.322Z,11.65
2022-10-14T04:35:02.864Z,11.58
2022-10-14T04:37:30.315Z,11.57
2022-10-14T04:39:56.755Z,11.55
2022-10-14T04:42:23.563Z,11.48
2022-10-14T04:44:50.610Z,11.52
2022-10-14T04:47:17.040Z,11.52
2022-10-14T04:49:43.461Z,11.57
2022-10-14T04:52:09.884Z,11.70
2022-10-14T04:54:36.292Z,11.74
2022-10-14T04:57:02.805Z,11.68
2022-10-14T04:59:29.270Z,11.75
2022-10-14T05:01:55.790Z,11.78
2022-10-14T05:04:22.477Z,11.75
2022-10-14T05:06:48.974Z,11.69
2022-10-14T05:09:15.369Z,11.73
2022-10-14T05:11:41.843Z,11.78
2022-10-14T05:14:08.278Z,11.82
2022-10-14T05:16:34.763Z,11.74
2022-10-14T05:19:01.153Z,11.79
2022-10-14T05:21:27.605Z,11.86
2022-10-14T05:23:54.023Z,11.79
2022-10-14T05:26:20.449Z,11.71
2022-10-14T05:28:46.941Z,11.68
2022-10-14T05:31:13.499Z,11.70
2022-10-14T05:33:39.947Z,11.58
2022-10-14T05:36:06.896Z,11.43
2022-10-14T05:38:34.148Z,11.36
2022-10-14T05:41:00.752Z,11.17
2022-10-14T05:43:32.108Z,11.20
2022-10-14T05:45:59.869Z,11.07
2022-10-14T05:48:26.404Z,11.21
2022-10-14T05:50:52.926Z,11.26
2022-10-14T05:53:19.482Z,11.38
2022-10-14T05:55:45.900Z,11.36
2022-10-14T05:58:12.308Z,11.33
2022-10-14T06:00:38.813Z,11.25
2022-10-14T06:03:05.555Z,11.14
2022-10-14T06:05:36.434Z,11.16
2022-10-14T06:08:03.235Z,11.17
2022-10-14T06:10:29.663Z,11.26
2022-10-14T06:12:56.731Z,11.23
2022-10-14T06:15:23.226Z,11.28
2022-10-14T06:17:49.647Z,11.37
2022-10-14T06:20:16.073Z,11.34
2022-10-14T06:22:42.501Z,11.27
2022-10-14T06:25:09.413Z,11.27
2022-10-14T06:27:35.819Z,11.33
2022-10-14T06:30:02.369Z,11.42
2022-10-14T06:32:28.828Z,11.42
2022-10-14T06:34:55.343Z,11.49
2022-10-14T06:37:21.784Z,11.58
2022-10-14T06:39:48.203Z,11.54
2022-10-14T06:42:14.810Z,11.59
2022-10-14T06:44:41.258Z,11.56
2022-10-14T06:47:08.069Z,11.64
2022-10-14T06:49:34.755Z,11.77
2022-10-14T06:52:01.324Z,11.91
2022-10-14T06:54:27.807Z,11.96
2022-10-14T06:56:55.377Z,11.95
2022-10-14T06:59:21.921Z,11.96
2022-10-14T07:01:48.378Z,12.04
2022-10-14T07:04:14.803Z,12.16
2022-10-14T07:06:41.636Z,12.22
2022-10-14T07:09:08.070Z,12.34
2022-10-14T07:11:34.475Z,12.39
2022-10-14T07:14:00.945Z,12.47
2022-10-14T07:16:28.225Z,12.56
2022-10-14T07:18:54.716Z,12.63
2022-10-14T07:21:21.187Z,12.67
2022-10-14T07:23:47.641Z,12.71
2022-10-14T07:26:14.104Z,12.79
2022-10-14T07:28:40.598Z,12.88
2022-10-14T07:31:09.978Z,12.95
2022-10-14T07:36:16.078Z,13.01
2022-10-14T07:38:45.316Z,13.06
2022-10-14T07:41:18.082Z,13.22
2022-10-14T07:43:46.965Z,13.24
2022-10-14T07:46:14.541Z,13.29
2022-10-14T07:48:57.588Z,13.36
2022-10-14T07:51:25.135Z,13.38
2022-10-14T07:53:53.057Z,13.39
2022-10-14T07:56:19.930Z,13.38
2022-10-14T07:58:46.612Z,13.38
2022-10-14T08:01:15.276Z,13.38
2022-10-14T08:03:43.026Z,13.37
2022-10-14T08:06:09.783Z,13.41
2022-10-14T08:08:36.315Z,13.37
2022-10-14T08:11:13.268Z,13.43
2022-10-14T08:13:43.526Z,13.49
2022-10-14T08:16:26.996Z,13.62
2022-10-14T08:18:56.166Z,13.75
2022-10-14T08:21:22.713Z,13.84
2022-10-14T08:23:49.613Z,13.89
2022-10-14T08:26:36.240Z,13.91
2022-10-14T08:29:06.453Z,13.99
2022-10-14T08:31:33.788Z,14.12
2022-10-14T08:34:00.450Z,14.31
2022-10-14T08:36:26.953Z,14.50
2022-10-14T08:38:54.452Z,14.62
2022-10-14T08:41:38.941Z,14.66
2022-10-14T08:44:27.257Z,14.69
2022-10-14T08:46:59.270Z,14.77
2022-10-14T08:50:01.645Z,14.83
2022-10-14T08:52:36.461Z,14.88
2022-10-14T08:55:35.482Z,14.91
2022-10-14T08:58:16.082Z,14.97
2022-10-14T09:00:47.596Z,15.04
2022-10-14T09:03:20.578Z,15.15
2022-10-14T09:05:57.520Z,15.25
2022-10-14T09:08:30.934Z,15.29
2022-10-14T09:10:58.381Z,15.38
2022-10-14T09:13:35.027Z,15.44
2022-10-14T09:16:25.510Z,15.48
2022-10-14T09:18:58.012Z,15.56
2022-10-14T09:21:53.564Z,15.57
2022-10-14T09:24:26.847Z,15.71
2022-10-14T09:27:21.870Z,15.87
2022-10-14T09:29:59.086Z,15.98
2022-10-14T09:32:46.538Z,16.13
2022-10-14T09:35:17.157Z,16.08
2022-10-14T09:37:43.623Z,15.99
2022-10-14T09:40:13.196Z,16.04
2022-10-14T09:42:39.538Z,16.19
2022-10-14T09:45:08.834Z,16.39
2022-10-14T09:47:45.640Z,16.62
2022-10-14T09:50:22.068Z,16.71
2022-10-14T09:53:02.381Z,16.89
2022-10-14T09:55:29.775Z,17.04
2022-10-14T09:58:17.055Z,17.19
2022-10-14T10:00:45.892Z,17.01
2022-10-14T10:03:32.609Z,17.07
2022-10-14T10:06:10.857Z,17.33
2022-10-14T10:08:54.337Z,17.52
2022-10-14T10:11:46.941Z,17.58
2022-10-14T10:14:22.184Z,17.53
2022-10-14T10:19:32.094Z,17.59
2022-10-14T10:22:24.169Z,17.56
2022-10-14T10:25:12.129Z,17.62
2022-10-14T10:27:45.653Z,17.65
2022-10-14T10:30:15.285Z,17.74
2022-10-14T10:32:47.548Z,17.91
2022-10-14T10:35:29.661Z,18.06
2022-10-14T10:38:20.512Z,18.17
2022-10-14T10:41:18.693Z,18.32
2022-10-14T10:44:02.301Z,18.40
2022-10-14T10:47:09.696Z,18.48
2022-10-14T10:50:01.912Z,18.58
2022-10-14T10:53:07.051Z,18.55
2022-10-14T10:55:54.039Z,18.58
2022-10-14T10:58:20.711Z,18.69
2022-10-14T11:01:01.226Z,18.65
2022-10-14T11:03:58.899Z,18.74
2022-10-14T11:06:50.119Z,18.78
2022-10-14T11:09:44.542Z,18.67
2022-10-14T11:12:29.714Z,18.78
2022-10-14T11:15:15.723Z,18.88
2022-10-14T11:18:02.227Z,18.82
2022-10-14T11:20:50.547Z,18.86
2022-10-14T11:23:57.095Z,18.96
2022-10-14T11:26:41.501Z,19.10
2022-10-14T11:29:22.935Z,19.15
2022-10-14T11:32:05.169Z,19.13
2022-10-14T11:34:38.020Z,19.29
2022-10-14T11:37:31.910Z,19.36
2022-10-14T11:40:02.738Z,19.33
2022-10-14T11:42:48.442Z,19.32
2022-10-14T11:45:35.144Z,19.37
2022-10-14T11:48:21.753Z,19.37
2022-10-14T11:50:56.224Z,19.36
2022-10-14T11:53:44.348Z,19.32
2022-10-14T11:56:23.949Z,19.41
2022-10-14T11:58:53.079Z,19.57
2022-10-14T12:01:26.484Z,19.58
2022-10-14T12:04:15.264Z,19.59
2022-10-14T12:06:49.008Z,19.55
2022-10-14T12:09:57.415Z,19.57
2022-10-14T12:12:29.121Z,19.57
2022-10-14T12:15:04.320Z,19.60
2022-10-14T12:17:39.151Z,19.63
2022-10-14T12:20:18.194Z,19.62
2022-10-14T12:22:49.394Z,19.54
2022-10-14T12:25:21.516Z,19.60
2022-10-14T12:27:50.119Z,19.69
2022-10-14T12:30:37.322Z,19.73
2022-10-14T12:33:09.453Z,19.77
2022-10-14T12:35:50.107Z,19.87
2022-10-14T12:38:16.524Z,19.92
2022-10-14T12:40:43.040Z,19.85
2022-10-14T12:43:12.424Z,19.81
2022-10-14T12:46:07.331Z,19.77
2022-10-14T12:48:36.169Z,19.78
2022-10-14T12:51:21.987Z,19.81
2022-10-14T12:53:57.986Z,19.80
2022-10-14T12:56:53.527Z,19.72
2022-10-14T12:59:28.517Z,19.69
2022-10-14T13:02:01.308Z,19.65
2022-10-14T13:04:28.613Z,19.71
2022-10-14T13:07:35.729Z,19.79
2022-10-14T13:10:26.972Z,19.76
2022-10-14T13:12:53.871Z,19.77
2022-10-14T13:15:36.068Z,19.81
2022-10-14T13:18:39.930Z,19.82
2022-10-14T13:21:08.816Z,19.83
2022-10-14T13:23:49.454Z,19.82
2022-10-14T13:26:21.698Z,19.78
2022-10-14T13:28:53.815Z,19.74
2022-10-14T13:31:27.927Z,19.78
2022-10-14T13:34:08.037Z,19.81
2022-10-14T13:36:39.825Z,19.79
2022-10-14T13:39:09.544Z,19.75
2022-10-14T13:41:37.807Z,19.73
2022-10-14T13:44:04.398Z,19.70
2022-10-14T13:46:41.595Z,19.69
2022-10-14T13:51:55.010Z,19.78
2022-10-14T13:54:23.925Z,19.74
2022-10-14T14:00:37.882Z,19.77
2022-10-14T14:02:34.908Z,19.81
2022-10-14T14:05:01.949Z,19.83
2022-10-14T14:07:59.596Z,19.82
2022-10-14T14:10:24.321Z,19.81
2022-10-14T14:12:51.384Z,19.89
2022-10-14T14:15:26.634Z,19.94
2022-10-14T14:17:53.835Z,19.92
2022-10-14T14:20:23.373Z,19.84
2022-10-14T14:22:50.417Z,19.77
2022-10-14T14:25:38.161Z,19.78
2022-10-14T14:28:06.898Z,19.74
2022-10-14T14:30:38.975Z,19.72
2022-10-14T14:33:12.223Z,19.74
2022-10-14T14:35:40.709Z,19.80
2022-10-14T14:38:24.218Z,19.82
2022-10-14T14:41:02.713Z,19.78
2022-10-14T14:43:34.735Z,19.73
2022-10-14T14:46:02.976Z,19.71
2022-10-14T14:48:30.892Z,19.67
2022-10-14T14:50:58.651Z,19.62
2022-10-14T14:53:29.578Z,19.59
2022-10-14T14:55:55.866Z,19.57
2022-10-14T14:58:24.851Z,19.60
2022-10-14T15:00:54.046Z,19.62
2022-10-14T15:03:22.886Z,19.59
2022-10-14T15:06:00.494Z,19.66
2022-10-14T15:08:37.765Z,19.71
2022-10-14T15:11:04.627Z,19.72
2022-10-14T15:13:40.464Z,19.64
2022-10-14T15:16:08.575Z,19.63
2022-10-14T15:18:37.522Z,19.58
2022-10-14T15:21:19.130Z,19.53
2022-10-14T15:24:00.339Z,19.47
2022-10-14T15:26:35.269Z,19.39
2022-10-14T15:29:07.744Z,19.34
2022-10-14T15:31:35.913Z,19.27
2022-10-14T15:34:03.349Z,19.20
2022-10-14T15:36:34.788Z,19.12
2022-10-14T15:39:02.463Z,19.07
2022-10-14T15:41:29.164Z,19.07
2022-10-14T15:43:55.724Z,19.07
2022-10-14T15:46:41.587Z,19.04
2022-10-14T15:49:25.592Z,18.97
2022-10-14T15:51:52.026Z,18.94
2022-10-14T15:54:18.462Z,18.89
2022-10-14T15:56:46.259Z,18.88
2022-10-14T15:59:15.475Z,18.86
2022-10-14T16:01:42.868Z,18.85
2022-10-14T16:04:19.632Z,18.82
2022-10-14T16:06:46.788Z,18.77
2022-10-14T16:09:13.734Z,18.74
2022-10-14T16:11:40.219Z,18.73
2022-10-14T16:14:08.123Z,18.73
2022-10-14T16:16:40.532Z,18.73
2022-10-14T16:19:06.957Z,18.70
2022-10-14T16:21:33.591Z,18.68
2022-10-14T16:24:02.211Z,18.66
2022-10-14T16:26:29.360Z,18.63
2022-10-14T16:28:55.958Z,18.60
2022-10-14T16:31:23.085Z,18.56
2022-10-14T16:33:50.877Z,18.51
2022-10-14T16:36:17.482Z,18.47
2022-10-14T16:38:44.268Z,18.43
2022-10-14T16:41:11.747Z,18.40
2022-10-14T16:43:38.927Z,18.33
2022-10-14T16:46:07.503Z,18.29
2022-10-14T16:48:36.069Z,18.25
2022-10-14T16:51:03.520Z,18.21
2022-10-14T16:53:48.803Z,18.17
2022-10-14T16:56:38.913Z,18.09
2022-10-14T16:59:08.152Z,18.04
2022-10-14T17:01:34.697Z,17.98
2022-10-14T17:04:01.192Z,17.94
2022-10-14T17:06:27.622Z,17.89
2022-10-14T17:08:54.668Z,17.85
2022-10-14T17:11:21.328Z,17.81
2022-10-14T17:13:52.175Z,17.77
2022-10-14T17:16:18.609Z,17.72
2022-10-14T17:18:45.074Z,17.69
2022-10-14T17:21:12.224Z,17.66
2022-10-14T17:23:42.059Z,17.63
2022-10-14T17:26:11.952Z,17.63
2022-10-14T17:28:38.893Z,17.58
2022-10-14T17:31:10.692Z,17.54
2022-10-14T17:33:40.497Z,17.50
2022-10-14T17:36:07.832Z,17.47
2022-10-14T17:38:35.631Z,17.47
2022-10-14T17:41:09.769Z,17.44
2022-10-14T17:43:37.196Z,17.40
2022-10-14T17:48:42.253Z,17.38
2022-10-14T17:51:12.994Z,17.32
2022-10-14T17:53:40.201Z,17.23
2022-10-14T17:56:11.945Z,17.21
2022-10-14T17:58:38.873Z,17.20
2022-10-14T18:01:08.498Z,17.19
2022-10-14T18:03:36.949Z,17.19
2022-10-14T18:06:12.149Z,17.12
2022-10-14T18:08:40.233Z,17.03
2022-10-14T18:11:10.856Z,16.99
2022-10-14T18:16:13.125Z,16.97
2022-10-14T18:18:40.449Z,16.95
2022-10-14T18:21:07.622Z,16.91
2022-10-14T18:23:38.720Z,16.84
2022-10-14T18:26:13.549Z,16.72
2022-10-14T18:28:43.104Z,16.66
2022-10-14T18:31:12.271Z,16.62
2022-10-14T18:33:39.803Z,16.49
2022-10-14T18:36:08.138Z,16.45
2022-10-14T18:38:35.162Z,16.41
2022-10-14T18:41:05.230Z,16.41
2022-10-14T18:43:32.548Z,16.33
2022-10-14T18:46:04.905Z,16.31
2022-10-14T18:48:31.695Z,16.40
2022-10-14T18:50:59.494Z,16.42
2022-10-14T18:53:26.608Z,16.31
2022-10-14T18:55:56.710Z,16.19
2022-10-14T18:58:26.012Z,16.16
2022-10-14T19:00:52.812Z,16.14
2022-10-14T19:03:19.293Z,16.16
2022-10-14T19:05:47.094Z,16.20
2022-10-14T19:10:45.410Z,16.13
2022-10-14T19:13:12.186Z,16.13
2022-10-14T19:15:45.333Z,16.15
2022-10-14T19:18:14.197Z,16.18
2022-10-14T19:20:41.832Z,16.15
2022-10-14T19:23:08.900Z,16.06
2022-10-14T19:25:36.366Z,15.91
2022-10-14T19:28:02.881Z,15.85
2022-10-14T19:30:29.288Z,15.88
2022-10-14T19:32:55.702Z,15.92
2022-10-14T19:35:22.134Z,15.93
2022-10-14T19:37:48.708Z,15.86
2022-10-14T19:40:18.660Z,15.80
2022-10-14T19:42:47.871Z,15.69
2022-10-14T19:45:14.338Z,15.63
2022-10-14T19:47:40.785Z,15.56
2022-10-14T19:50:07.656Z,15.61
2022-10-14T19:52:34.098Z,15.59
2022-10-14T19:55:00.669Z,15.40
2022-10-14T19:57:27.376Z,15.33
2022-10-14T19:59:53.971Z,15.32
2022-10-14T20:02:20.484Z,15.34
2022-10-14T20:04:46.908Z,15.36
2022-10-14T20:07:13.583Z,15.36
2022-10-14T20:09:40.001Z,15.38
2022-10-14T20:12:07.049Z,15.39
2022-10-14T20:14:33.473Z,15.30
2022-10-14T20:17:01.620Z,15.17
2022-10-14T20:19:28.044Z,15.11
2022-10-14T20:21:54.613Z,15.11
2022-10-14T20:24:21.075Z,15.11
2022-10-14T20:26:47.492Z,15.13
2022-10-14T20:29:14.141Z,15.11
2022-10-14T20:31:40.528Z,15.05
2022-10-14T20:34:10.418Z,15.00
2022-10-14T20:36:37.881Z,14.99
2022-10-14T20:39:04.338Z,15.05
2022-10-14T20:41:30.769Z,14.97
2022-10-14T20:43:57.317Z,14.93
2022-10-14T20:46:25.118Z,14.99
2022-10-14T20:48:58.118Z,15.04
2022-10-14T20:51:24.705Z,15.05
2022-10-14T20:54:00.380Z,15.09
2022-10-14T20:56:31.200Z,15.03
2022-10-14T20:58:59.766Z,14.94
2022-10-14T21:01:28.324Z,14.90
2022-10-14T21:03:56.040Z,14.88
2022-10-14T21:06:24.392Z,14.90
2022-10-14T21:08:51.775Z,14.90
2022-10-14T21:11:23.427Z,14.92
2022-10-14T21:13:54.906Z,14.92
2022-10-14T21:16:35.759Z,14.88
2022-10-14T21:19:07.768Z,14.75
2022-10-14T21:21:39.709Z,14.79
2022-10-14T21:24:07.009Z,14.83
2022-10-14T21:26:33.538Z,14.82
2022-10-14T21:29:02.177Z,14.72
2022-10-14T21:31:28.639Z,14.72
2022-10-14T21:34:01.127Z,14.66
2022-10-14T21:36:29.332Z,14.67
2022-10-14T21:38:57.086Z,14.68
2022-10-14T21:41:27.783Z,14.64
2022-10-14T21:43:58.717Z,14.69
2022-10-14T21:46:25.891Z,14.73
2022-10-14T21:48:57.148Z,14.66
2022-10-14T21:51:26.133Z,14.60
2022-10-14T21:53:52.597Z,14.59
2022-10-14T21:56:19.434Z,14.55
2022-10-14T21:58:45.858Z,14.53
2022-10-14T22:01:17.288Z,14.56
2022-10-14T22:03:44.669Z,14.56
2022-10-14T22:06:15.981Z,14.54
2022-10-14T22:08:45.769Z,14.59
2022-10-14T22:11:21.817Z,14.61
2022-10-14T22:13:49.303Z,14.55
2022-10-14T22:16:19.578Z,14.48
2022-10-14T22:18:47.655Z,14.41
2022-10-14T22:21:16.310Z,14.38
2022-10-14T22:23:43.255Z,14.31
2022-10-14T22:26:13.008Z,14.37
2022-10-14T22:28:40.170Z,14.36
2022-10-14T22:31:11.849Z,14.37
2022-10-14T22:33:39.699Z,14.37
2022-10-14T22:36:14.405Z,14.38
2022-10-14T22:38:43.659Z,14.38
2022-10-14T22:41:12.009Z,14.33
2022-10-14T22:43:39.137Z,14.23
2022-10-14T22:46:10.167Z,14.27
2022-10-14T22:48:37.036Z,14.28
2022-10-14T22:51:08.708Z,14.23
2022-10-14T22:53:35.613Z,14.26
2022-10-14T22:56:02.960Z,14.29
2022-10-14T22:58:29.435Z,14.35
2022-10-14T23:00:55.968Z,14.39
2022-10-14T23:03:22.517Z,14.40
2022-10-14T23:05:48.933Z,14.45
2022-10-14T23:08:15.567Z,14.33
2022-10-14T23:10:42.626Z,14.24
2022-10-14T23:13:09.488Z,14.20
2022-10-14T23:15:36.344Z,14.26
2022-10-14T23:18:03.412Z,14.29
2022-10-14T23:20:33.075Z,14.26
2022-10-14T23:22:59.467Z,14.24
2022-10-14T23:25:25.867Z,14.21
2022-10-14T23:27:52.255Z,14.18
2022-10-14T23:30:18.726Z,14.23
2022-10-14T23:32:45.106Z,14.22
2022-10-14T23:35:11.511Z,14.24
2022-10-14T23:37:37.922Z,14.28
2022-10-14T23:40:04.847Z,14.28
2022-10-14T23:42:31.284Z,14.29
2022-10-14T23:44:57.770Z,14.27
2022-10-14T23:47:24.484Z,14.14
2022-10-14T23:49:51.154Z,14.00
2022-10-14T23:52:17.564Z,14.09
2022-10-14T23:54:44.016Z,14.12
2022-10-14T23:57:10.457Z,14.15
2022-10-14T23:59:36.865Z,14.11
